sensor_id;sensor_type;location;lat;lon;timestamp;temperature;humidity
44723;DHT22;30451;48.638;10.624;2023-05-07T00:02:02;25.00;48.50
44723;DHT22;30451;48.638;10.624;2023-05-07T00:04:29;25.00;48.50
44723;DHT22;30451;48.638;10.624;2023-05-07T00:07:01;25.00;48.50
44723;DHT22;30451;48.638;10.624;2023-05-07T00:09:26;24.90;48.40
44723;DHT22;30451;48.638;10.624;2023-05-07T00:11:52;25.00;48.40
44723;DHT22;30451;48.638;10.624;2023-05-07T00:14:18;24.90;48.40
44723;DHT22;30451;48.638;10.624;2023-05-07T00:16:43;24.90;48.40
44723;DHT22;30451;48.638;10.624;2023-05-07T00:19:09;24.90;48.40
44723;DHT22;30451;48.638;10.624;2023-05-07T00:21:35;24.90;48.40
44723;DHT22;30451;48.638;10.624;2023-05-07T00:24:00;24.90;48.40
44723;DHT22;30451;48.638;10.624;2023-05-07T00:26:26;24.90;48.40
44723;DHT22;30451;48.638;10.624;2023-05-07T00:28:52;24.90;48.80
44723;DHT22;30451;48.638;10.624;2023-05-07T00:31:17;24.90;48.30
44723;DHT22;30451;48.638;10.624;2023-05-07T00:33:43;24.90;48.30
44723;DHT22;30451;48.638;10.624;2023-05-07T00:36:08;24.90;48.30
44723;DHT22;30451;48.638;10.624;2023-05-07T00:38:34;24.90;48.30
44723;DHT22;30451;48.638;10.624;2023-05-07T00:41:00;24.80;48.30
44723;DHT22;30451;48.638;10.624;2023-05-07T00:43:25;24.80;48.30
44723;DHT22;30451;48.638;10.624;2023-05-07T00:45:52;24.80;48.30
44723;DHT22;30451;48.638;10.624;2023-05-07T00:48:18;24.80;48.30
44723;DHT22;30451;48.638;10.624;2023-05-07T00:50:44;24.80;48.30
44723;DHT22;30451;48.638;10.624;2023-05-07T00:53:11;24.80;48.30
44723;DHT22;30451;48.638;10.624;2023-05-07T00:55:38;24.80;48.30
44723;DHT22;30451;48.638;10.624;2023-05-07T00:58:03;24.80;48.30
44723;DHT22;30451;48.638;10.624;2023-05-07T01:00:29;24.80;48.30
44723;DHT22;30451;48.638;10.624;2023-05-07T01:02:55;24.80;48.30
44723;DHT22;30451;48.638;10.624;2023-05-07T01:05:22;24.80;48.30
44723;DHT22;30451;48.638;10.624;2023-05-07T01:07:49;24.80;48.30
44723;DHT22;30451;48.638;10.624;2023-05-07T01:10:15;24.70;48.30
44723;DHT22;30451;48.638;10.624;2023-05-07T01:12:42;24.70;48.30
44723;DHT22;30451;48.638;10.624;2023-05-07T01:15:09;24.70;48.30
44723;DHT22;30451;48.638;10.624;2023-05-07T01:17:36;24.70;48.30
44723;DHT22;30451;48.638;10.624;2023-05-07T01:20:02;24.70;48.30
44723;DHT22;30451;48.638;10.624;2023-05-07T01:22:31;24.70;48.40
44723;DHT22;30451;48.638;10.624;2023-05-07T01:24:58;24.70;48.30
44723;DHT22;30451;48.638;10.624;2023-05-07T01:27:25;24.70;48.30
44723;DHT22;30451;48.638;10.624;2023-05-07T01:29:50;24.60;48.30
44723;DHT22;30451;48.638;10.624;2023-05-07T01:32:23;24.60;48.30
44723;DHT22;30451;48.638;10.624;2023-05-07T01:34:52;24.70;48.40
44723;DHT22;30451;48.638;10.624;2023-05-07T01:37:18;24.60;48.30
44723;DHT22;30451;48.638;10.624;2023-05-07T01:39:44;24.60;48.30
44723;DHT22;30451;48.638;10.624;2023-05-07T01:42:10;24.60;48.30
44723;DHT22;30451;48.638;10.624;2023-05-07T01:44:35;24.60;48.30
44723;DHT22;30451;48.638;10.624;2023-05-07T01:47:02;24.60;48.30
44723;DHT22;30451;48.638;10.624;2023-05-07T01:49:28;24.60;48.40
44723;DHT22;30451;48.638;10.624;2023-05-07T01:51:53;24.60;48.40
44723;DHT22;30451;48.638;10.624;2023-05-07T01:54:19;24.50;48.30
44723;DHT22;30451;48.638;10.624;2023-05-07T01:56:45;24.50;48.30
44723;DHT22;30451;48.638;10.624;2023-05-07T01:59:13;24.50;48.30
44723;DHT22;30451;48.638;10.624;2023-05-07T02:01:38;24.50;48.30
44723;DHT22;30451;48.638;10.624;2023-05-07T02:04:04;24.50;48.40
44723;DHT22;30451;48.638;10.624;2023-05-07T02:06:29;24.50;48.40
44723;DHT22;30451;48.638;10.624;2023-05-07T02:08:56;24.50;48.30
44723;DHT22;30451;48.638;10.624;2023-05-07T02:11:22;24.50;48.30
44723;DHT22;30451;48.638;10.624;2023-05-07T02:13:47;24.50;48.30
44723;DHT22;30451;48.638;10.624;2023-05-07T02:16:13;24.50;48.30
44723;DHT22;30451;48.638;10.624;2023-05-07T02:18:39;24.50;48.30
44723;DHT22;30451;48.638;10.624;2023-05-07T02:21:05;24.50;48.30
44723;DHT22;30451;48.638;10.624;2023-05-07T02:23:30;24.50;48.40
44723;DHT22;30451;48.638;10.624;2023-05-07T02:25:56;24.50;48.40
44723;DHT22;30451;48.638;10.624;2023-05-07T02:28:21;24.40;48.30
44723;DHT22;30451;48.638;10.624;2023-05-07T02:30:47;24.40;48.30
44723;DHT22;30451;48.638;10.624;2023-05-07T02:33:13;24.40;48.40
44723;DHT22;30451;48.638;10.624;2023-05-07T02:35:39;24.50;48.40
44723;DHT22;30451;48.638;10.624;2023-05-07T02:38:04;24.50;48.40
44723;DHT22;30451;48.638;10.624;2023-05-07T02:40:30;24.40;48.40
44723;DHT22;30451;48.638;10.624;2023-05-07T02:42:59;24.40;48.40
44723;DHT22;30451;48.638;10.624;2023-05-07T02:45:24;24.40;48.40
44723;DHT22;30451;48.638;10.624;2023-05-07T02:47:50;24.40;48.30
44723;DHT22;30451;48.638;10.624;2023-05-07T02:50:16;24.40;48.40
44723;DHT22;30451;48.638;10.624;2023-05-07T02:52:42;24.30;48.30
44723;DHT22;30451;48.638;10.624;2023-05-07T02:55:07;24.40;48.40
44723;DHT22;30451;48.638;10.624;2023-05-07T02:57:33;24.40;48.40
44723;DHT22;30451;48.638;10.624;2023-05-07T02:59:59;24.30;48.40
44723;DHT22;30451;48.638;10.624;2023-05-07T03:02:25;24.30;48.40
44723;DHT22;30451;48.638;10.624;2023-05-07T03:04:51;24.30;48.40
44723;DHT22;30451;48.638;10.624;2023-05-07T03:07:17;24.30;48.40
44723;DHT22;30451;48.638;10.624;2023-05-07T03:09:42;24.30;48.40
44723;DHT22;30451;48.638;10.624;2023-05-07T03:12:08;24.30;48.40
44723;DHT22;30451;48.638;10.624;2023-05-07T03:14:33;24.30;48.40
44723;DHT22;30451;48.638;10.624;2023-05-07T03:16:59;24.30;48.40
44723;DHT22;30451;48.638;10.624;2023-05-07T03:19:24;24.30;48.40
44723;DHT22;30451;48.638;10.624;2023-05-07T03:21:50;24.30;48.40
44723;DHT22;30451;48.638;10.624;2023-05-07T03:24:16;24.30;48.50
44723;DHT22;30451;48.638;10.624;2023-05-07T03:26:41;24.20;48.40
44723;DHT22;30451;48.638;10.624;2023-05-07T03:29:07;24.30;48.50
44723;DHT22;30451;48.638;10.624;2023-05-07T03:31:32;24.20;48.40
44723;DHT22;30451;48.638;10.624;2023-05-07T03:33:58;24.20;48.40
44723;DHT22;30451;48.638;10.624;2023-05-07T03:36:24;24.20;48.50
44723;DHT22;30451;48.638;10.624;2023-05-07T03:38:51;24.20;48.50
44723;DHT22;30451;48.638;10.624;2023-05-07T03:41:17;24.20;48.50
44723;DHT22;30451;48.638;10.624;2023-05-07T03:43:43;24.20;48.50
44723;DHT22;30451;48.638;10.624;2023-05-07T03:46:08;24.20;48.50
44723;DHT22;30451;48.638;10.624;2023-05-07T03:48:34;24.20;48.50
44723;DHT22;30451;48.638;10.624;2023-05-07T03:51:00;24.20;48.50
44723;DHT22;30451;48.638;10.624;2023-05-07T03:53:25;24.20;48.50
44723;DHT22;30451;48.638;10.624;2023-05-07T03:55:51;24.20;48.50
44723;DHT22;30451;48.638;10.624;2023-05-07T03:58:16;24.10;48.50
44723;DHT22;30451;48.638;10.624;2023-05-07T04:00:42;24.10;48.50
44723;DHT22;30451;48.638;10.624;2023-05-07T04:03:08;24.10;48.50
44723;DHT22;30451;48.638;10.624;2023-05-07T04:05:34;24.10;48.50
44723;DHT22;30451;48.638;10.624;2023-05-07T04:08:00;24.10;48.50
44723;DHT22;30451;48.638;10.624;2023-05-07T04:10:26;24.10;48.50
44723;DHT22;30451;48.638;10.624;2023-05-07T04:12:52;24.10;48.50
44723;DHT22;30451;48.638;10.624;2023-05-07T04:15:17;24.10;48.50
44723;DHT22;30451;48.638;10.624;2023-05-07T04:17:43;24.10;48.50
44723;DHT22;30451;48.638;10.624;2023-05-07T04:20:09;24.00;48.50
44723;DHT22;30451;48.638;10.624;2023-05-07T04:22:36;24.00;48.50
44723;DHT22;30451;48.638;10.624;2023-05-07T04:25:02;24.10;48.60
44723;DHT22;30451;48.638;10.624;2023-05-07T04:27:28;24.00;48.60
44723;DHT22;30451;48.638;10.624;2023-05-07T04:29:54;24.00;48.50
44723;DHT22;30451;48.638;10.624;2023-05-07T04:32:21;24.10;48.60
44723;DHT22;30451;48.638;10.624;2023-05-07T04:34:47;24.00;48.50
44723;DHT22;30451;48.638;10.624;2023-05-07T04:37:13;24.00;48.60
44723;DHT22;30451;48.638;10.624;2023-05-07T04:39:38;24.00;48.60
44723;DHT22;30451;48.638;10.624;2023-05-07T04:42:04;24.00;48.60
44723;DHT22;30451;48.638;10.624;2023-05-07T04:44:32;24.00;49.10
44723;DHT22;30451;48.638;10.624;2023-05-07T04:46:59;24.00;48.60
44723;DHT22;30451;48.638;10.624;2023-05-07T04:49:25;24.00;48.60
44723;DHT22;30451;48.638;10.624;2023-05-07T04:51:51;23.90;48.60
44723;DHT22;30451;48.638;10.624;2023-05-07T04:54:16;24.00;48.60
44723;DHT22;30451;48.638;10.624;2023-05-07T04:56:42;23.90;48.60
44723;DHT22;30451;48.638;10.624;2023-05-07T04:59:07;23.90;48.60
44723;DHT22;30451;48.638;10.624;2023-05-07T05:01:33;23.90;48.60
44723;DHT22;30451;48.638;10.624;2023-05-07T05:03:59;23.90;48.60
44723;DHT22;30451;48.638;10.624;2023-05-07T05:06:25;23.90;48.60
44723;DHT22;30451;48.638;10.624;2023-05-07T05:08:51;23.90;48.60
44723;DHT22;30451;48.638;10.624;2023-05-07T05:11:17;23.90;48.60
44723;DHT22;30451;48.638;10.624;2023-05-07T05:13:42;23.90;48.60
44723;DHT22;30451;48.638;10.624;2023-05-07T05:16:08;23.90;48.60
44723;DHT22;30451;48.638;10.624;2023-05-07T05:18:34;23.90;48.60
44723;DHT22;30451;48.638;10.624;2023-05-07T05:21:00;23.90;48.60
44723;DHT22;30451;48.638;10.624;2023-05-07T05:23:27;23.90;48.60
44723;DHT22;30451;48.638;10.624;2023-05-07T05:25:56;23.90;48.60
44723;DHT22;30451;48.638;10.624;2023-05-07T05:28:25;23.90;48.60
44723;DHT22;30451;48.638;10.624;2023-05-07T05:30:50;23.90;48.60
44723;DHT22;30451;48.638;10.624;2023-05-07T05:33:16;23.90;48.70
44723;DHT22;30451;48.638;10.624;2023-05-07T05:35:42;23.90;48.70
44723;DHT22;30451;48.638;10.624;2023-05-07T05:38:08;23.90;48.70
44723;DHT22;30451;48.638;10.624;2023-05-07T05:40:33;23.80;48.60
44723;DHT22;30451;48.638;10.624;2023-05-07T05:42:59;23.80;48.60
44723;DHT22;30451;48.638;10.624;2023-05-07T05:45:25;23.80;48.60
44723;DHT22;30451;48.638;10.624;2023-05-07T05:47:51;23.80;48.60
44723;DHT22;30451;48.638;10.624;2023-05-07T05:50:17;23.80;48.70
44723;DHT22;30451;48.638;10.624;2023-05-07T05:52:42;23.80;48.70
44723;DHT22;30451;48.638;10.624;2023-05-07T05:55:08;23.80;48.70
44723;DHT22;30451;48.638;10.624;2023-05-07T05:57:34;23.80;48.70
44723;DHT22;30451;48.638;10.624;2023-05-07T06:00:01;23.80;48.70
44723;DHT22;30451;48.638;10.624;2023-05-07T06:02:26;23.80;48.70
44723;DHT22;30451;48.638;10.624;2023-05-07T06:04:52;23.80;48.70
44723;DHT22;30451;48.638;10.624;2023-05-07T06:07:18;23.80;48.70
44723;DHT22;30451;48.638;10.624;2023-05-07T06:09:43;23.80;48.70
44723;DHT22;30451;48.638;10.624;2023-05-07T06:12:09;23.80;48.70
44723;DHT22;30451;48.638;10.624;2023-05-07T06:14:35;23.80;48.80
44723;DHT22;30451;48.638;10.624;2023-05-07T06:17:00;23.80;48.70
44723;DHT22;30451;48.638;10.624;2023-05-07T06:19:26;23.70;48.70
44723;DHT22;30451;48.638;10.624;2023-05-07T06:21:53;23.70;48.70
44723;DHT22;30451;48.638;10.624;2023-05-07T06:24:19;23.70;48.70
44723;DHT22;30451;48.638;10.624;2023-05-07T06:26:45;23.70;48.80
44723;DHT22;30451;48.638;10.624;2023-05-07T06:29:10;23.70;48.80
44723;DHT22;30451;48.638;10.624;2023-05-07T06:31:36;23.70;48.70
44723;DHT22;30451;48.638;10.624;2023-05-07T06:34:01;23.70;48.80
44723;DHT22;30451;48.638;10.624;2023-05-07T06:36:28;23.70;48.80
44723;DHT22;30451;48.638;10.624;2023-05-07T06:38:53;23.70;48.80
44723;DHT22;30451;48.638;10.624;2023-05-07T06:41:19;23.70;48.80
44723;DHT22;30451;48.638;10.624;2023-05-07T06:43:45;23.70;48.80
44723;DHT22;30451;48.638;10.624;2023-05-07T06:46:11;23.70;48.80
44723;DHT22;30451;48.638;10.624;2023-05-07T06:48:36;23.70;48.80
44723;DHT22;30451;48.638;10.624;2023-05-07T06:51:02;23.70;48.80
44723;DHT22;30451;48.638;10.624;2023-05-07T06:53:28;23.70;48.80
44723;DHT22;30451;48.638;10.624;2023-05-07T06:55:54;23.70;48.80
44723;DHT22;30451;48.638;10.624;2023-05-07T06:58:20;23.70;48.80
44723;DHT22;30451;48.638;10.624;2023-05-07T07:00:46;23.70;48.80
44723;DHT22;30451;48.638;10.624;2023-05-07T07:03:11;23.70;48.80
44723;DHT22;30451;48.638;10.624;2023-05-07T07:05:37;23.70;48.80
44723;DHT22;30451;48.638;10.624;2023-05-07T07:08:02;23.70;48.80
44723;DHT22;30451;48.638;10.624;2023-05-07T07:10:28;23.70;48.80
44723;DHT22;30451;48.638;10.624;2023-05-07T07:12:53;23.70;48.90
44723;DHT22;30451;48.638;10.624;2023-05-07T07:15:19;23.70;48.90
44723;DHT22;30451;48.638;10.624;2023-05-07T07:17:46;23.70;48.90
44723;DHT22;30451;48.638;10.624;2023-05-07T07:20:12;23.70;48.80
44723;DHT22;30451;48.638;10.624;2023-05-07T07:22:37;23.70;48.90
44723;DHT22;30451;48.638;10.624;2023-05-07T07:25:03;23.60;48.80
44723;DHT22;30451;48.638;10.624;2023-05-07T07:27:29;23.60;48.80
44723;DHT22;30451;48.638;10.624;2023-05-07T07:29:54;23.60;48.80
44723;DHT22;30451;48.638;10.624;2023-05-07T07:32:20;23.60;48.80
44723;DHT22;30451;48.638;10.624;2023-05-07T07:34:46;23.60;48.80
44723;DHT22;30451;48.638;10.624;2023-05-07T07:37:11;23.60;48.80
44723;DHT22;30451;48.638;10.624;2023-05-07T07:39:37;23.60;48.80
44723;DHT22;30451;48.638;10.624;2023-05-07T07:42:06;23.60;48.80
44723;DHT22;30451;48.638;10.624;2023-05-07T07:44:32;23.60;48.80
44723;DHT22;30451;48.638;10.624;2023-05-07T07:46:57;23.60;48.80
44723;DHT22;30451;48.638;10.624;2023-05-07T07:49:23;23.60;48.80
44723;DHT22;30451;48.638;10.624;2023-05-07T07:51:48;23.60;48.90
44723;DHT22;30451;48.638;10.624;2023-05-07T07:54:14;23.60;48.80
44723;DHT22;30451;48.638;10.624;2023-05-07T07:56:40;23.60;48.80
44723;DHT22;30451;48.638;10.624;2023-05-07T07:59:05;23.60;48.80
44723;DHT22;30451;48.638;10.624;2023-05-07T08:01:31;23.60;48.90
44723;DHT22;30451;48.638;10.624;2023-05-07T08:03:57;23.60;48.80
44723;DHT22;30451;48.638;10.624;2023-05-07T08:06:25;23.60;48.90
44723;DHT22;30451;48.638;10.624;2023-05-07T08:08:51;23.60;48.90
44723;DHT22;30451;48.638;10.624;2023-05-07T08:11:17;23.60;48.90
44723;DHT22;30451;48.638;10.624;2023-05-07T08:13:43;23.60;48.90
44723;DHT22;30451;48.638;10.624;2023-05-07T08:16:08;23.60;48.90
44723;DHT22;30451;48.638;10.624;2023-05-07T08:18:34;23.60;49.40
44723;DHT22;30451;48.638;10.624;2023-05-07T08:21:01;23.60;48.90
44723;DHT22;30451;48.638;10.624;2023-05-07T08:23:26;23.60;48.90
44723;DHT22;30451;48.638;10.624;2023-05-07T08:25:52;23.60;48.90
44723;DHT22;30451;48.638;10.624;2023-05-07T08:28:18;23.60;48.90
44723;DHT22;30451;48.638;10.624;2023-05-07T08:30:44;23.60;48.90
44723;DHT22;30451;48.638;10.624;2023-05-07T08:33:10;23.60;48.90
44723;DHT22;30451;48.638;10.624;2023-05-07T08:35:35;23.60;48.90
44723;DHT22;30451;48.638;10.624;2023-05-07T08:38:01;23.60;48.90
44723;DHT22;30451;48.638;10.624;2023-05-07T08:40:37;23.60;48.90
44723;DHT22;30451;48.638;10.624;2023-05-07T08:43:05;23.60;49.40
44723;DHT22;30451;48.638;10.624;2023-05-07T08:45:33;23.60;48.90
44723;DHT22;30451;48.638;10.624;2023-05-07T08:48:01;23.60;48.90
44723;DHT22;30451;48.638;10.624;2023-05-07T08:50:27;23.60;48.90
44723;DHT22;30451;48.638;10.624;2023-05-07T08:52:53;23.60;48.90
44723;DHT22;30451;48.638;10.624;2023-05-07T08:55:19;23.60;48.90
44723;DHT22;30451;48.638;10.624;2023-05-07T08:57:45;23.60;48.90
44723;DHT22;30451;48.638;10.624;2023-05-07T09:00:12;23.60;48.90
44723;DHT22;30451;48.638;10.624;2023-05-07T09:02:38;23.60;48.90
44723;DHT22;30451;48.638;10.624;2023-05-07T09:05:04;23.60;48.90
44723;DHT22;30451;48.638;10.624;2023-05-07T09:07:30;23.60;48.90
44723;DHT22;30451;48.638;10.624;2023-05-07T09:09:56;23.60;48.90
44723;DHT22;30451;48.638;10.624;2023-05-07T09:12:22;23.60;48.90
44723;DHT22;30451;48.638;10.624;2023-05-07T09:14:48;23.60;49.00
44723;DHT22;30451;48.638;10.624;2023-05-07T09:17:16;23.60;49.00
44723;DHT22;30451;48.638;10.624;2023-05-07T09:19:46;23.60;49.00
44723;DHT22;30451;48.638;10.624;2023-05-07T09:22:12;23.60;49.00
44723;DHT22;30451;48.638;10.624;2023-05-07T09:24:38;23.60;49.00
44723;DHT22;30451;48.638;10.624;2023-05-07T09:27:05;23.60;49.00
44723;DHT22;30451;48.638;10.624;2023-05-07T09:29:30;23.60;49.00
44723;DHT22;30451;48.638;10.624;2023-05-07T09:32:04;23.50;49.00
44723;DHT22;30451;48.638;10.624;2023-05-07T09:34:30;23.50;49.00
44723;DHT22;30451;48.638;10.624;2023-05-07T09:37:01;23.60;49.10
44723;DHT22;30451;48.638;10.624;2023-05-07T09:39:38;23.60;49.10
44723;DHT22;30451;48.638;10.624;2023-05-07T09:42:04;23.60;49.10
44723;DHT22;30451;48.638;10.624;2023-05-07T09:44:32;23.60;49.10
44723;DHT22;30451;48.638;10.624;2023-05-07T09:47:00;23.50;49.10
44723;DHT22;30451;48.638;10.624;2023-05-07T09:49:28;23.60;49.10
44723;DHT22;30451;48.638;10.624;2023-05-07T09:51:55;23.60;49.10
44723;DHT22;30451;48.638;10.624;2023-05-07T09:54:22;23.60;49.10
44723;DHT22;30451;48.638;10.624;2023-05-07T09:56:52;23.50;49.10
44723;DHT22;30451;48.638;10.624;2023-05-07T09:59:18;23.60;49.20
44723;DHT22;30451;48.638;10.624;2023-05-07T10:01:45;23.60;49.20
44723;DHT22;30451;48.638;10.624;2023-05-07T10:04:12;23.50;49.10
44723;DHT22;30451;48.638;10.624;2023-05-07T10:06:38;23.60;49.20
44723;DHT22;30451;48.638;10.624;2023-05-07T10:09:04;23.50;49.20
44723;DHT22;30451;48.638;10.624;2023-05-07T10:11:36;23.50;49.20
44723;DHT22;30451;48.638;10.624;2023-05-07T10:14:03;23.50;49.20
44723;DHT22;30451;48.638;10.624;2023-05-07T10:16:32;23.50;49.20
44723;DHT22;30451;48.638;10.624;2023-05-07T10:19:02;23.60;49.20
44723;DHT22;30451;48.638;10.624;2023-05-07T10:21:29;23.50;49.20
44723;DHT22;30451;48.638;10.624;2023-05-07T10:24:12;23.60;49.20
44723;DHT22;30451;48.638;10.624;2023-05-07T10:26:44;23.50;49.20
44723;DHT22;30451;48.638;10.624;2023-05-07T10:34:33;23.50;49.20
44723;DHT22;30451;48.638;10.624;2023-05-07T10:37:00;23.60;49.30
44723;DHT22;30451;48.638;10.624;2023-05-07T10:39:27;23.50;49.20
44723;DHT22;30451;48.638;10.624;2023-05-07T10:41:52;23.60;49.20
44723;DHT22;30451;48.638;10.624;2023-05-07T10:44:31;23.60;49.20
44723;DHT22;30451;48.638;10.624;2023-05-07T10:47:16;23.60;49.20
44723;DHT22;30451;48.638;10.624;2023-05-07T10:52:20;23.60;49.20
44723;DHT22;30451;48.638;10.624;2023-05-07T10:54:46;23.60;49.20
44723;DHT22;30451;48.638;10.624;2023-05-07T10:57:34;23.60;49.20
44723;DHT22;30451;48.638;10.624;2023-05-07T11:00:02;23.60;49.20
44723;DHT22;30451;48.638;10.624;2023-05-07T11:05:30;23.60;49.20
44723;DHT22;30451;48.638;10.624;2023-05-07T11:08:04;23.60;49.20
44723;DHT22;30451;48.638;10.624;2023-05-07T11:13:14;23.60;49.20
44723;DHT22;30451;48.638;10.624;2023-05-07T11:15:47;23.60;49.70
44723;DHT22;30451;48.638;10.624;2023-05-07T11:18:16;23.60;49.20
44723;DHT22;30451;48.638;10.624;2023-05-07T11:26:15;23.70;49.20
44723;DHT22;30451;48.638;10.624;2023-05-07T11:28:42;23.60;49.20
44723;DHT22;30451;48.638;10.624;2023-05-07T11:31:09;23.60;49.20
44723;DHT22;30451;48.638;10.624;2023-05-07T11:33:36;23.60;49.20
44723;DHT22;30451;48.638;10.624;2023-05-07T11:36:05;23.60;49.20
44723;DHT22;30451;48.638;10.624;2023-05-07T11:38:34;23.60;49.20
44723;DHT22;30451;48.638;10.624;2023-05-07T11:41:00;23.70;49.30
44723;DHT22;30451;48.638;10.624;2023-05-07T11:43:27;23.60;49.20
44723;DHT22;30451;48.638;10.624;2023-05-07T11:45:53;23.60;49.20
44723;DHT22;30451;48.638;10.624;2023-05-07T11:48:21;23.60;49.20
44723;DHT22;30451;48.638;10.624;2023-05-07T11:51:01;23.60;49.20
44723;DHT22;30451;48.638;10.624;2023-05-07T11:53:28;23.70;49.20
44723;DHT22;30451;48.638;10.624;2023-05-07T11:56:01;23.60;49.20
44723;DHT22;30451;48.638;10.624;2023-05-07T11:58:31;23.60;49.20
44723;DHT22;30451;48.638;10.624;2023-05-07T12:00:57;23.60;49.20
44723;DHT22;30451;48.638;10.624;2023-05-07T12:03:22;23.70;49.20
44723;DHT22;30451;48.638;10.624;2023-05-07T12:05:48;23.60;49.10
44723;DHT22;30451;48.638;10.624;2023-05-07T12:08:18;23.70;49.20
44723;DHT22;30451;48.638;10.624;2023-05-07T12:10:44;23.70;49.20
44723;DHT22;30451;48.638;10.624;2023-05-07T12:13:24;23.70;49.20
44723;DHT22;30451;48.638;10.624;2023-05-07T12:15:51;23.70;49.20
44723;DHT22;30451;48.638;10.624;2023-05-07T12:18:17;23.70;49.20
44723;DHT22;30451;48.638;10.624;2023-05-07T12:20:44;23.70;49.20
44723;DHT22;30451;48.638;10.624;2023-05-07T12:23:10;23.70;49.20
44723;DHT22;30451;48.638;10.624;2023-05-07T12:25:38;23.70;49.10
44723;DHT22;30451;48.638;10.624;2023-05-07T12:28:04;23.70;48.70
44723;DHT22;30451;48.638;10.624;2023-05-07T12:30:37;23.70;48.20
44723;DHT22;30451;48.638;10.624;2023-05-07T12:33:03;23.70;48.00
44723;DHT22;30451;48.638;10.624;2023-05-07T12:35:39;23.70;48.10
44723;DHT22;30451;48.638;10.624;2023-05-07T12:38:13;23.70;48.20
44723;DHT22;30451;48.638;10.624;2023-05-07T12:40:49;23.70;48.10
44723;DHT22;30451;48.638;10.624;2023-05-07T12:43:25;23.70;48.10
44723;DHT22;30451;48.638;10.624;2023-05-07T12:45:54;23.70;48.20
44723;DHT22;30451;48.638;10.624;2023-05-07T12:48:20;23.70;48.20
44723;DHT22;30451;48.638;10.624;2023-05-07T12:51:05;23.70;48.10
44723;DHT22;30451;48.638;10.624;2023-05-07T12:53:32;23.70;47.80
44723;DHT22;30451;48.638;10.624;2023-05-07T12:55:59;23.70;47.60
44723;DHT22;30451;48.638;10.624;2023-05-07T12:58:33;23.70;47.50
44723;DHT22;30451;48.638;10.624;2023-05-07T13:01:03;23.70;47.30
44723;DHT22;30451;48.638;10.624;2023-05-07T13:03:34;23.60;47.20
44723;DHT22;30451;48.638;10.624;2023-05-07T13:06:02;23.60;47.00
44723;DHT22;30451;48.638;10.624;2023-05-07T13:08:36;23.60;47.00
44723;DHT22;30451;48.638;10.624;2023-05-07T13:11:03;23.60;47.10
44723;DHT22;30451;48.638;10.624;2023-05-07T13:13:30;23.60;47.30
44723;DHT22;30451;48.638;10.624;2023-05-07T13:15:56;23.60;47.50
44723;DHT22;30451;48.638;10.624;2023-05-07T13:18:22;23.60;47.70
44723;DHT22;30451;48.638;10.624;2023-05-07T13:20:47;23.60;47.70
44723;DHT22;30451;48.638;10.624;2023-05-07T13:23:13;23.60;47.70
44723;DHT22;30451;48.638;10.624;2023-05-07T13:25:38;23.60;47.70
44723;DHT22;30451;48.638;10.624;2023-05-07T13:28:04;23.60;47.50
44723;DHT22;30451;48.638;10.624;2023-05-07T13:30:30;23.70;47.40
44723;DHT22;30451;48.638;10.624;2023-05-07T13:32:56;23.60;47.50
44723;DHT22;30451;48.638;10.624;2023-05-07T13:35:21;23.60;47.80
44723;DHT22;30451;48.638;10.624;2023-05-07T13:37:47;23.60;48.40
44723;DHT22;30451;48.638;10.624;2023-05-07T13:40:15;23.60;48.00
44723;DHT22;30451;48.638;10.624;2023-05-07T13:42:40;23.60;47.90
44723;DHT22;30451;48.638;10.624;2023-05-07T13:45:07;23.60;48.50
44723;DHT22;30451;48.638;10.624;2023-05-07T13:47:33;23.60;48.00
44723;DHT22;30451;48.638;10.624;2023-05-07T13:49:58;23.60;47.90
44723;DHT22;30451;48.638;10.624;2023-05-07T13:52:24;23.70;47.90
44723;DHT22;30451;48.638;10.624;2023-05-07T13:54:49;23.60;47.70
44723;DHT22;30451;48.638;10.624;2023-05-07T13:57:17;23.70;47.90
44723;DHT22;30451;48.638;10.624;2023-05-07T13:59:43;23.70;48.10
44723;DHT22;30451;48.638;10.624;2023-05-07T14:02:09;23.70;48.20
44723;DHT22;30451;48.638;10.624;2023-05-07T14:04:34;23.70;48.20
44723;DHT22;30451;48.638;10.624;2023-05-07T14:07:00;23.70;48.30
44723;DHT22;30451;48.638;10.624;2023-05-07T14:09:26;23.70;48.30
44723;DHT22;30451;48.638;10.624;2023-05-07T14:11:51;23.80;48.50
44723;DHT22;30451;48.638;10.624;2023-05-07T14:14:18;23.80;48.80
44723;DHT22;30451;48.638;10.624;2023-05-07T14:16:44;23.80;48.90
44723;DHT22;30451;48.638;10.624;2023-05-07T14:19:11;23.80;48.90
44723;DHT22;30451;48.638;10.624;2023-05-07T14:21:37;23.80;48.90
44723;DHT22;30451;48.638;10.624;2023-05-07T14:24:02;23.80;48.80
44723;DHT22;30451;48.638;10.624;2023-05-07T14:26:28;23.80;48.50
44723;DHT22;30451;48.638;10.624;2023-05-07T14:28:54;23.80;48.10
44723;DHT22;30451;48.638;10.624;2023-05-07T14:31:22;23.80;47.80
44723;DHT22;30451;48.638;10.624;2023-05-07T14:33:48;23.80;47.80
44723;DHT22;30451;48.638;10.624;2023-05-07T14:36:15;23.80;47.80
44723;DHT22;30451;48.638;10.624;2023-05-07T14:38:40;23.90;47.90
44723;DHT22;30451;48.638;10.624;2023-05-07T14:41:06;23.90;48.00
44723;DHT22;30451;48.638;10.624;2023-05-07T14:43:32;23.90;48.20
44723;DHT22;30451;48.638;10.624;2023-05-07T14:45:57;23.90;48.30
44723;DHT22;30451;48.638;10.624;2023-05-07T14:48:23;23.90;48.50
44723;DHT22;30451;48.638;10.624;2023-05-07T14:50:48;23.90;48.50
44723;DHT22;30451;48.638;10.624;2023-05-07T14:53:15;23.90;48.60
44723;DHT22;30451;48.638;10.624;2023-05-07T14:55:40;23.90;48.60
44723;DHT22;30451;48.638;10.624;2023-05-07T14:58:06;23.90;48.70
44723;DHT22;30451;48.638;10.624;2023-05-07T15:00:32;23.90;48.70
44723;DHT22;30451;48.638;10.624;2023-05-07T15:03:05;23.90;48.70
44723;DHT22;30451;48.638;10.624;2023-05-07T15:05:31;24.00;48.80
44723;DHT22;30451;48.638;10.624;2023-05-07T15:07:57;24.00;48.80
44723;DHT22;30451;48.638;10.624;2023-05-07T15:10:23;24.00;48.90
44723;DHT22;30451;48.638;10.624;2023-05-07T15:12:48;24.00;49.00
44723;DHT22;30451;48.638;10.624;2023-05-07T15:15:14;24.00;49.20
44723;DHT22;30451;48.638;10.624;2023-05-07T15:17:40;24.00;49.40
44723;DHT22;30451;48.638;10.624;2023-05-07T15:20:06;24.00;49.40
44723;DHT22;30451;48.638;10.624;2023-05-07T15:22:32;24.00;49.60
44723;DHT22;30451;48.638;10.624;2023-05-07T15:24:58;24.00;49.30
44723;DHT22;30451;48.638;10.624;2023-05-07T15:27:24;24.10;48.70
44723;DHT22;30451;48.638;10.624;2023-05-07T15:29:50;24.10;48.20
44723;DHT22;30451;48.638;10.624;2023-05-07T15:32:16;24.10;47.90